createdAt,value
2023-03-20T00:01:30.201Z,9.80
2023-03-20T00:03:58.131Z,9.80
2023-03-20T00:06:27.445Z,9.80
2023-03-20T00:08:57.432Z,9.70
2023-03-20T00:11:41.366Z,9.70
2023-03-20T00:14:13.042Z,9.60
2023-03-20T00:16:43.193Z,9.60
2023-03-20T00:19:23.820Z,9.60
2023-03-20T00:21:52.930Z,9.60
2023-03-20T00:24:20.264Z,9.60
2023-03-20T00:26:49.721Z,9.60
2023-03-20T00:29:31.185Z,9.60
2023-03-20T00:31:59.403Z,9.60
2023-03-20T00:34:32.750Z,9.70
2023-03-20T00:37:00.308Z,9.70
2023-03-20T00:39:30.504Z,9.80
2023-03-20T00:42:01.993Z,9.80
2023-03-20T00:44:44.869Z,9.90
2023-03-20T00:47:21.504Z,9.90
2023-03-20T00:49:51.340Z,9.90
2023-03-20T00:52:20.222Z,9.80
2023-03-20T00:54:48.061Z,9.80
2023-03-20T00:57:38.905Z,9.80
2023-03-20T01:00:39.972Z,9.80
2023-03-20T01:03:20.959Z,9.80
2023-03-20T01:05:50.040Z,9.70
2023-03-20T01:08:19.691Z,9.60
2023-03-20T01:10:49.075Z,9.60
2023-03-20T01:13:24.055Z,9.60
2023-03-20T01:15:53.182Z,9.60
2023-03-20T01:18:23.110Z,9.60
2023-03-20T01:20:53.080Z,9.60
2023-03-20T01:23:23.123Z,9.60
2023-03-20T01:25:51.202Z,9.70
2023-03-20T01:28:23.978Z,9.60
2023-03-20T01:30:51.732Z,9.70
2023-03-20T01:33:21.671Z,9.70
2023-03-20T01:35:53.927Z,9.70
2023-03-20T01:38:24.907Z,9.80
2023-03-20T01:41:04.954Z,9.70
2023-03-20T01:43:34.568Z,9.70
2023-03-20T01:46:03.655Z,9.80
2023-03-20T01:48:53.953Z,9.70
2023-03-20T01:51:24.537Z,9.70
2023-03-20T01:54:02.554Z,9.80
2023-03-20T01:56:34.973Z,9.80
2023-03-20T01:59:08.977Z,9.80
2023-03-20T02:01:37.478Z,9.80
2023-03-20T02:04:06.611Z,9.80
2023-03-20T02:07:00.729Z,9.80
2023-03-20T02:09:43.070Z,9.80
2023-03-20T02:12:17.049Z,9.80
2023-03-20T02:14:47.044Z,9.80
2023-03-20T02:17:43.616Z,9.80
2023-03-20T02:20:31.464Z,9.80
2023-03-20T02:23:13.735Z,9.80
2023-03-20T02:25:43.997Z,9.80
2023-03-20T02:28:28.477Z,9.80
2023-03-20T02:31:18.538Z,9.70
2023-03-20T02:34:36.157Z,9.60
2023-03-20T02:37:37.142Z,9.60
2023-03-20T02:40:27.548Z,9.60
2023-03-20T02:43:31.948Z,9.60
2023-03-20T02:46:02.226Z,9.60
2023-03-20T02:48:35.237Z,9.60
2023-03-20T02:51:27.138Z,9.60
2023-03-20T02:54:24.501Z,9.60
2023-03-20T02:57:06.082Z,9.60
2023-03-20T02:59:55.677Z,9.50
2023-03-20T03:02:39.317Z,9.50
2023-03-20T03:05:19.890Z,9.50
2023-03-20T03:07:52.244Z,9.40
2023-03-20T03:10:30.594Z,9.40
2023-03-20T03:13:00.551Z,9.30
2023-03-20T03:15:39.804Z,9.30
2023-03-20T03:18:12.090Z,9.20
2023-03-20T03:20:40.479Z,9.20
2023-03-20T03:23:08.061Z,9.20
2023-03-20T03:25:41.390Z,9.20
2023-03-20T03:28:27.919Z,9.20
2023-03-20T03:30:57.012Z,9.20
2023-03-20T03:33:28.939Z,9.10
2023-03-20T03:36:21.885Z,9.00
2023-03-20T03:39:37.164Z,9.00
2023-03-20T03:42:12.158Z,9.00
2023-03-20T03:44:48.524Z,9.00
2023-03-20T03:47:22.719Z,8.90
2023-03-20T03:49:56.639Z,8.90
2023-03-20T03:52:26.516Z,8.90
2023-03-20T03:55:04.481Z,8.80
2023-03-20T03:57:42.940Z,8.70
2023-03-20T04:00:19.223Z,8.70
2023-03-20T04:02:51.347Z,8.70
2023-03-20T04:05:21.136Z,8.60
2023-03-20T04:07:54.217Z,8.60
2023-03-20T04:10:21.658Z,8.60
2023-03-20T04:12:48.989Z,8.60
2023-03-20T04:15:17.020Z,8.60
2023-03-20T04:17:44.836Z,8.50
2023-03-20T04:20:14.509Z,8.50
2023-03-20T04:22:41.895Z,8.50
2023-03-20T04:25:23.224Z,8.50
2023-03-20T04:27:54.212Z,8.50
2023-03-20T04:30:35.591Z,8.50
2023-03-20T04:33:26.675Z,8.50
2023-03-20T04:36:17.135Z,8.60
2023-03-20T04:38:44.517Z,8.60
2023-03-20T04:41:11.906Z,8.60
2023-03-20T04:43:40.721Z,8.60
2023-03-20T04:46:08.704Z,8.50
2023-03-20T04:48:36.119Z,8.50
2023-03-20T04:51:03.534Z,8.60
2023-03-20T04:53:43.320Z,8.50
2023-03-20T04:56:10.713Z,8.50
2023-03-20T04:58:39.274Z,8.40
2023-03-20T05:01:06.756Z,8.40
2023-03-20T05:03:34.121Z,8.40
2023-03-20T05:06:01.965Z,8.40
2023-03-20T05:08:29.333Z,8.40
2023-03-20T05:11:00.300Z,8.30
2023-03-20T05:13:46.269Z,8.40
2023-03-20T05:16:26.185Z,8.30
2023-03-20T05:19:16.526Z,8.30
2023-03-20T05:22:02.815Z,8.30
2023-03-20T05:24:48.074Z,8.30
2023-03-20T05:27:35.653Z,8.30
2023-03-20T05:30:21.836Z,8.30
2023-03-20T05:33:09.134Z,8.30
2023-03-20T05:35:47.107Z,8.30
2023-03-20T05:38:31.517Z,8.30
2023-03-20T05:41:21.956Z,8.40
2023-03-20T05:44:05.120Z,8.40
2023-03-20T05:46:43.943Z,8.40
2023-03-20T05:49:45.911Z,8.50
2023-03-20T05:52:25.788Z,8.50
2023-03-20T05:55:09.562Z,8.50
2023-03-20T05:57:55.542Z,8.60
2023-03-20T06:00:29.588Z,8.70
2023-03-20T06:03:16.829Z,8.70
2023-03-20T06:05:57.390Z,8.70
2023-03-20T06:08:24.940Z,8.80
2023-03-20T06:10:52.612Z,8.80
2023-03-20T06:13:20.487Z,8.80
2023-03-20T06:15:47.832Z,8.80
2023-03-20T06:18:17.865Z,8.80
2023-03-20T06:20:45.395Z,8.80
2023-03-20T06:23:14.220Z,8.80
2023-03-20T06:25:41.560Z,8.80
2023-03-20T06:28:10.018Z,8.90
2023-03-20T06:30:38.193Z,8.80
2023-03-20T06:33:08.122Z,8.90
2023-03-20T06:35:51.537Z,8.90
2023-03-20T06:38:18.907Z,8.90
2023-03-20T06:40:48.252Z,9.00
2023-03-20T06:43:18.709Z,8.90
2023-03-20T06:45:51.706Z,9.00
2023-03-20T06:48:22.466Z,9.10
2023-03-20T06:50:51.789Z,9.10
2023-03-20T06:53:22.809Z,9.10
2023-03-20T06:56:00.719Z,9.20
2023-03-20T06:58:28.101Z,9.20
2023-03-20T07:00:55.661Z,9.30
2023-03-20T07:03:23.158Z,9.40
2023-03-20T07:05:51.245Z,9.50
2023-03-20T07:08:19.908Z,9.40
2023-03-20T07:10:49.635Z,9.50
2023-03-20T07:13:16.902Z,9.50
2023-03-20T07:16:01.289Z,9.60
2023-03-20T07:18:34.031Z,9.60
2023-03-20T07:21:05.330Z,9.60
2023-03-20T07:23:37.326Z,9.70
2023-03-20T07:26:05.607Z,9.90
2023-03-20T07:28:34.206Z,9.80
2023-03-20T07:31:23.269Z,9.80
2023-03-20T07:33:56.218Z,9.90
2023-03-20T07:36:23.526Z,9.80
2023-03-20T07:38:50.836Z,9.80
2023-03-20T07:41:19.278Z,10.00
2023-03-20T07:43:56.770Z,10.00
2023-03-20T07:47:02.637Z,10.00
2023-03-20T07:49:29.954Z,10.00
2023-03-20T07:51:57.366Z,10.10
2023-03-20T07:54:25.018Z,10.20
2023-03-20T07:56:53.089Z,10.40
2023-03-20T07:59:20.687Z,10.30
2023-03-20T08:01:47.920Z,10.40
2023-03-20T08:04:19.532Z,10.60
2023-03-20T08:06:46.999Z,10.60
2023-03-20T08:09:14.498Z,10.50
2023-03-20T08:11:41.882Z,10.70
2023-03-20T08:14:09.297Z,10.80
2023-03-20T08:16:36.809Z,10.90
2023-03-20T08:19:05.450Z,10.70
2023-03-20T08:21:33.363Z,10.70
2023-03-20T08:24:00.753Z,10.80
2023-03-20T08:26:28.456Z,10.90
2023-03-20T08:28:56.005Z,11.00
2023-03-20T08:31:23.324Z,11.00
2023-03-20T08:33:50.985Z,10.90
2023-03-20T08:36:20.931Z,10.90
2023-03-20T08:38:49.858Z,11.10
2023-03-20T08:41:18.644Z,11.10
2023-03-20T08:43:46.364Z,11.30
2023-03-20T08:46:13.871Z,11.50
2023-03-20T08:48:41.397Z,11.50
2023-03-20T08:51:09.020Z,11.90
2023-03-20T08:53:37.010Z,12.10
2023-03-20T08:56:04.811Z,11.80
2023-03-20T08:58:32.114Z,11.90
2023-03-20T09:01:08.649Z,11.80
2023-03-20T09:03:36.989Z,11.90
2023-03-20T09:06:09.075Z,12.00
2023-03-20T09:08:36.666Z,12.20
2023-03-20T09:11:04.771Z,12.30
2023-03-20T09:13:32.117Z,12.00
2023-03-20T09:15:59.626Z,11.90
2023-03-20T09:18:27.448Z,11.90
2023-03-20T09:20:56.667Z,12.00
2023-03-20T09:23:24.528Z,12.00
2023-03-20T09:25:52.024Z,11.80
2023-03-20T09:28:19.744Z,11.70
2023-03-20T09:30:47.407Z,11.50
2023-03-20T09:33:15.118Z,11.50
2023-03-20T09:35:43.752Z,11.60
2023-03-20T09:38:12.556Z,11.70
2023-03-20T09:40:50.855Z,11.70
2023-03-20T09:43:48.858Z,11.90
2023-03-20T09:46:40.332Z,11.90
2023-03-20T09:49:12.924Z,12.20
2023-03-20T09:51:57.292Z,12.30
2023-03-20T09:54:29.101Z,12.00
2023-03-20T09:56:58.326Z,11.90
2023-03-20T09:59:27.673Z,11.90
2023-03-20T10:02:00.747Z,12.00
2023-03-20T10:04:30.062Z,12.00
2023-03-20T10:06:57.670Z,11.90
2023-03-20T10:09:27.763Z,11.80
2023-03-20T10:12:04.876Z,11.80
2023-03-20T10:14:56.786Z,11.90
2023-03-20T10:17:30.583Z,11.90
2023-03-20T10:20:02.532Z,12.20
2023-03-20T10:22:38.402Z,12.10
2023-03-20T10:25:25.010Z,12.30
2023-03-20T10:28:04.470Z,12.40
2023-03-20T10:30:38.330Z,12.50
2023-03-20T10:33:27.169Z,12.50
2023-03-20T10:35:57.490Z,12.60
2023-03-20T10:38:48.702Z,12.30
2023-03-20T10:41:22.402Z,12.50
2023-03-20T10:43:51.755Z,12.60
2023-03-20T10:46:35.664Z,12.60
2023-03-20T10:49:18.054Z,12.60
2023-03-20T10:51:56.131Z,13.00
2023-03-20T10:54:28.950Z,13.00
2023-03-20T10:56:59.700Z,13.30
2023-03-20T10:59:56.865Z,13.40
2023-03-20T11:02:28.755Z,13.40
2023-03-20T11:04:56.113Z,13.50
2023-03-20T11:07:28.928Z,13.50
2023-03-20T11:10:05.278Z,13.40
2023-03-20T11:12:38.660Z,13.00
2023-03-20T11:15:27.874Z,13.10
2023-03-20T11:17:57.985Z,13.10
2023-03-20T11:20:27.900Z,13.10
2023-03-20T11:23:02.102Z,13.20
2023-03-20T11:25:33.744Z,13.30
2023-03-20T11:28:26.067Z,13.40
2023-03-20T11:31:05.365Z,13.60
2023-03-20T11:33:57.094Z,13.70
2023-03-20T11:36:28.148Z,13.60
2023-03-20T11:39:04.032Z,13.50
2023-03-20T11:41:31.276Z,13.50
2023-03-20T11:43:58.873Z,13.50
2023-03-20T11:46:26.461Z,13.70
2023-03-20T11:49:21.458Z,13.80
2023-03-20T11:51:48.889Z,13.70
2023-03-20T11:54:21.782Z,13.80
2023-03-20T11:57:07.144Z,14.00
2023-03-20T11:59:37.348Z,14.20
2023-03-20T12:02:17.528Z,14.20
2023-03-20T12:04:47.559Z,14.20
2023-03-20T12:07:27.522Z,14.10
2023-03-20T12:10:02.846Z,14.00
2023-03-20T12:12:54.463Z,13.80
2023-03-20T12:15:33.137Z,13.80
2023-03-20T12:18:15.723Z,13.80
2023-03-20T12:21:19.765Z,13.90
2023-03-20T12:24:12.123Z,14.20
2023-03-20T12:26:56.875Z,14.70
2023-03-20T12:29:32.169Z,14.90
2023-03-20T12:32:13.017Z,15.20
2023-03-20T12:35:02.479Z,15.20
2023-03-20T12:37:29.779Z,15.40
2023-03-20T12:40:00.443Z,15.40
2023-03-20T12:42:27.655Z,15.40
2023-03-20T12:45:13.529Z,15.00
2023-03-20T12:48:27.202Z,14.70
2023-03-20T12:51:13.541Z,14.50
2023-03-20T12:53:49.770Z,14.50
2023-03-20T12:56:27.958Z,14.30
2023-03-20T12:58:58.049Z,13.90
2023-03-20T13:01:29.788Z,13.60
2023-03-20T13:04:23.276Z,13.40
2023-03-20T13:07:06.270Z,13.20
2023-03-20T13:09:59.029Z,13.00
2023-03-20T13:13:09.151Z,13.00
2023-03-20T13:15:59.050Z,13.00
2023-03-20T13:18:54.355Z,13.10
2023-03-20T13:22:00.317Z,13.00
2023-03-20T13:24:36.567Z,13.00
2023-03-20T13:27:09.708Z,13.00
2023-03-20T13:29:48.584Z,13.00
2023-03-20T13:32:36.946Z,13.10
2023-03-20T13:35:23.511Z,13.10
2023-03-20T13:37:59.147Z,13.30
2023-03-20T13:40:33.755Z,13.40
2023-03-20T13:43:22.039Z,13.60
2023-03-20T13:45:52.356Z,13.50
2023-03-20T13:48:41.185Z,13.60
2023-03-20T13:51:43.318Z,13.60
2023-03-20T13:54:50.825Z,13.80
2023-03-20T13:57:49.292Z,13.80
2023-03-20T14:00:38.508Z,14.00
2023-03-20T14:03:47.275Z,14.10
2023-03-20T14:06:32.633Z,14.30
2023-03-20T14:09:01.132Z,14.20
2023-03-20T14:11:35.669Z,14.20
2023-03-20T14:14:15.365Z,14.30
2023-03-20T14:16:43.069Z,14.30
2023-03-20T14:19:21.868Z,14.20
2023-03-20T14:21:53.107Z,14.00
2023-03-20T14:24:22.795Z,14.10
2023-03-20T14:26:55.376Z,14.20
2023-03-20T14:29:38.718Z,14.20
2023-03-20T14:32:33.193Z,14.30
2023-03-20T14:35:21.699Z,14.40
2023-03-20T14:38:08.317Z,14.70
2023-03-20T14:40:43.859Z,15.00
2023-03-20T14:43:32.998Z,15.00
2023-03-20T14:46:07.360Z,14.70
2023-03-20T14:48:50.753Z,14.60
2023-03-20T14:51:37.767Z,14.50
2023-03-20T14:54:25.185Z,14.30
2023-03-20T14:56:53.427Z,14.20
2023-03-20T14:59:22.990Z,14.10
2023-03-20T15:01:53.212Z,14.00
2023-03-20T15:04:28.608Z,13.90
2023-03-20T15:07:04.547Z,13.90
2023-03-20T15:09:35.891Z,13.70
2023-03-20T15:12:04.635Z,13.70
2023-03-20T15:14:42.666Z,13.60
2023-03-20T15:17:23.009Z,13.60
2023-03-20T15:19:51.070Z,13.60
2023-03-20T15:22:20.808Z,13.40
2023-03-20T15:24:57.034Z,13.40
2023-03-20T15:27:29.692Z,13.50
2023-03-20T15:29:57.949Z,13.30
2023-03-20T15:32:25.555Z,13.10
2023-03-20T15:34:53.659Z,12.90
2023-03-20T15:37:24.738Z,12.80
2023-03-20T15:39:56.327Z,13.10
2023-03-20T15:42:25.267Z,13.00
2023-03-20T15:44:54.981Z,13.00
2023-03-20T15:47:25.158Z,13.00
2023-03-20T15:49:54.008Z,12.90
2023-03-20T15:52:41.149Z,13.00
2023-03-20T15:55:16.625Z,13.20
2023-03-20T15:57:47.341Z,13.20
2023-03-20T16:00:20.290Z,13.20
2023-03-20T16:02:49.099Z,13.20
2023-03-20T16:05:18.367Z,13.10
2023-03-20T16:07:45.959Z,13.00
2023-03-20T16:10:35.611Z,13.00
2023-03-20T16:13:04.651Z,12.80
2023-03-20T16:15:34.177Z,12.80
2023-03-20T16:18:04.618Z,12.60
2023-03-20T16:20:41.800Z,12.70
2023-03-20T16:23:09.787Z,12.70
2023-03-20T16:25:38.160Z,12.60
2023-03-20T16:28:09.098Z,12.60
2023-03-20T16:30:36.929Z,12.60
2023-03-20T16:33:12.933Z,12.40
2023-03-20T16:35:45.540Z,12.30
2023-03-20T16:38:16.032Z,12.20
2023-03-20T16:40:43.546Z,12.10
2023-03-20T16:43:20.218Z,12.00
2023-03-20T16:45:56.498Z,11.90
2023-03-20T16:48:23.729Z,11.80
2023-03-20T16:51:04.153Z,11.80
2023-03-20T16:53:40.482Z,11.60
2023-03-20T16:56:24.484Z,11.50
2023-03-20T16:58:53.996Z,11.50
2023-03-20T17:01:25.066Z,11.50
2023-03-20T17:04:11.541Z,11.40
2023-03-20T17:06:46.416Z,11.30
2023-03-20T17:09:13.586Z,11.20
2023-03-20T17:11:47.523Z,11.20
2023-03-20T17:14:15.619Z,11.20
2023-03-20T17:16:44.254Z,11.00
2023-03-20T17:19:18.793Z,11.00
2023-03-20T17:21:46.912Z,10.90
2023-03-20T17:24:15.997Z,10.90
2023-03-20T17:26:46.618Z,10.80
2023-03-20T17:29:14.665Z,10.70
2023-03-20T17:31:42.163Z,10.70
2023-03-20T17:34:14.894Z,10.60
2023-03-20T17:36:42.431Z,10.60
2023-03-20T17:39:17.029Z,10.50
2023-03-20T17:41:44.398Z,10.50
2023-03-20T17:44:11.794Z,10.40
2023-03-20T17:46:56.308Z,10.40
2023-03-20T17:49:27.629Z,10.40
2023-03-20T17:51:56.286Z,10.40
2023-03-20T17:54:23.575Z,10.30
2023-03-20T17:56:50.869Z,10.40
2023-03-20T17:59:18.766Z,10.40
2023-03-20T18:01:46.390Z,10.40
2023-03-20T18:04:13.947Z,10.30
2023-03-20T18:06:41.801Z,10.30
2023-03-20T18:09:13.456Z,10.30
2023-03-20T18:11:41.197Z,10.30
2023-03-20T18:14:08.776Z,10.30
2023-03-20T18:16:36.451Z,10.30
2023-03-20T18:19:03.915Z,10.30
2023-03-20T18:21:31.341Z,10.30
2023-03-20T18:23:58.657Z,10.20
2023-03-20T18:26:27.646Z,10.20
2023-03-20T18:28:55.773Z,10.20
2023-03-20T18:31:23.334Z,10.10
2023-03-20T18:33:52.978Z,10.20
2023-03-20T18:36:23.059Z,10.20
2023-03-20T18:38:51.672Z,10.10
2023-03-20T18:41:19.197Z,10.10
2023-03-20T18:43:46.776Z,10.10
2023-03-20T18:46:20.638Z,10.10
2023-03-20T18:48:49.284Z,10.10
2023-03-20T18:51:16.871Z,10.00
2023-03-20T18:53:45.165Z,10.00
2023-03-20T18:56:21.721Z,10.00
2023-03-20T18:58:49.895Z,10.00
2023-03-20T19:01:17.832Z,10.00
2023-03-20T19:03:46.963Z,10.10
2023-03-20T19:06:16.854Z,10.00
2023-03-20T19:08:45.419Z,10.00
2023-03-20T19:11:17.883Z,10.10
2023-03-20T19:13:52.520Z,10.10
2023-03-20T19:16:31.949Z,10.10
2023-03-20T19:19:02.167Z,10.20
2023-03-20T19:21:30.624Z,10.20
2023-03-20T19:24:00.405Z,10.20
2023-03-20T19:26:29.433Z,10.10
2023-03-20T19:28:59.069Z,10.20
2023-03-20T19:31:27.748Z,10.20
2023-03-20T19:33:56.846Z,10.10
2023-03-20T19:36:27.014Z,10.20
2023-03-20T19:38:55.868Z,10.10
2023-03-20T19:41:23.523Z,10.20
2023-03-20T19:43:55.260Z,10.10
2023-03-20T19:46:41.760Z,10.10
2023-03-20T19:49:21.059Z,10.20
2023-03-20T19:51:49.953Z,10.10
2023-03-20T19:54:17.925Z,10.10
2023-03-20T19:56:45.790Z,10.10
2023-03-20T19:59:16.251Z,10.10
2023-03-20T20:01:45.536Z,10.00
2023-03-20T20:04:12.977Z,10.00
2023-03-20T20:06:41.796Z,10.00
2023-03-20T20:09:09.451Z,9.90
2023-03-20T20:11:37.281Z,9.90
2023-03-20T20:14:08.535Z,9.90
2023-03-20T20:16:37.265Z,9.90
2023-03-20T20:19:05.170Z,9.90
2023-03-20T20:24:20.270Z,9.90
2023-03-20T20:26:54.856Z,9.80
2023-03-20T20:29:27.061Z,9.80
2023-03-20T20:31:54.440Z,9.80
2023-03-20T20:37:53.756Z,9.80
2023-03-20T20:39:58.196Z,9.80
2023-03-20T20:42:25.672Z,9.80
2023-03-20T20:44:53.481Z,9.80
2023-03-20T20:47:21.411Z,9.70
2023-03-20T20:49:49.416Z,9.70
2023-03-20T20:52:16.794Z,9.70
2023-03-20T20:54:44.403Z,9.60
2023-03-20T20:57:12.396Z,9.60
2023-03-20T20:59:41.286Z,9.50
2023-03-20T21:02:13.128Z,9.50
2023-03-20T21:04:42.570Z,9.40
2023-03-20T21:07:12.084Z,9.50
2023-03-20T21:09:40.940Z,9.40
2023-03-20T21:12:10.793Z,9.40
2023-03-20T21:14:43.034Z,9.40
2023-03-20T21:17:11.417Z,9.50
2023-03-20T21:19:40.773Z,9.40
2023-03-20T21:22:10.906Z,9.50
2023-03-20T21:24:39.873Z,9.40
2023-03-20T21:27:11.507Z,9.50
2023-03-20T21:29:40.032Z,9.50
2023-03-20T21:32:09.564Z,9.50
2023-03-20T21:34:38.200Z,9.50
2023-03-20T21:38:06.944Z,9.60
2023-03-20T21:39:54.263Z,9.60
2023-03-20T21:42:21.499Z,9.60
2023-03-20T21:46:04.606Z,9.60
2023-03-20T21:59:27.032Z,9.40
2023-03-20T22:07:59.524Z,9.20
2023-03-20T22:10:44.321Z,9.20
2023-03-20T22:13:37.150Z,9.10
2023-03-20T22:16:12.832Z,9.20
2023-03-20T22:33:12.024Z,9.20
2023-03-20T22:36:10.364Z,9.20
2023-03-20T22:41:35.990Z,9.20
2023-03-20T22:46:42.150Z,9.10
2023-03-20T22:49:05.858Z,9.20
2023-03-20T22:51:38.669Z,9.20
2023-03-20T22:54:11.473Z,9.20
2023-03-20T22:56:38.758Z,9.20
2023-03-20T22:59:06.889Z,9.20
2023-03-20T23:01:34.256Z,9.20
2023-03-20T23:04:20.440Z,9.20
2023-03-20T23:07:06.137Z,9.30
2023-03-20T23:09:33.419Z,9.30
2023-03-20T23:12:00.729Z,9.30
2023-03-20T23:14:30.834Z,9.30
2023-03-20T23:17:00.759Z,9.30
2023-03-20T23:19:29.902Z,9.30
2023-03-20T23:21:57.400Z,9.30
2023-03-20T23:24:24.788Z,9.40
2023-03-20T23:26:53.809Z,9.40
2023-03-20T23:29:21.643Z,9.30
2023-03-20T23:31:48.976Z,9.30
2023-03-20T23:34:18.091Z,9.40
2023-03-20T23:36:45.642Z,9.30
2023-03-20T23:39:14.557Z,9.30
2023-03-20T23:44:29.407Z,9.20
2023-03-20T23:46:56.702Z,9.20
2023-03-20T23:49:24.155Z,9.20
2023-03-20T23:51:51.619Z,9.20
2023-03-20T23:54:18.932Z,9.10
2023-03-20T23:56:46.276Z,9.10
2023-03-20T23:59:22.027Z,9.10
